Time;durP1;ratioP1;P1;durP2;ratioP2;P2;SDS_P1;SDS_P2;PMS_P1;PMS_P2;Temp;Humidity;BMP_temperature;BMP_pressure;BME280_temperature;BME280_humidity;BME280_pressure;Samples;Min_cycle;Max_cycle;Signal;HPM_P1;HPM_P2
2021/09/17 00:01:59;;;;;;;32.50;13.77;;;;;;;22.19;44.21;95064.34;4989678;28;20410;-78
2021/09/17 00:04:24;;;;;;;38.08;15.52;;;;;;;22.15;44.08;95061.53;4989108;28;20042;-79
2021/09/17 00:06:51;;;;;;;48.90;16.83;;;;;;;22.14;44.06;95053.88;5011881;28;20027;-78
2021/09/17 00:09:17;;;;;;;35.92;15.05;;;;;;;22.14;43.66;95046.72;4988260;28;20045;-79
2021/09/17 00:11:43;;;;;;;50.25;19.63;;;;;;;22.15;44.86;95053.56;4993612;28;20582;-78
2021/09/17 00:14:08;;;;;;;54.97;22.63;;;;;;;22.11;45.16;95044.63;5011888;28;20034;-78
2021/09/17 00:16:34;;;;;;;62.03;24.88;;;;;;;22.10;45.60;95037.00;4985989;28;20034;-79
2021/09/17 00:18:59;;;;;;;58.22;22.67;;;;;;;22.06;45.52;95046.63;4970791;28;20053;-79
2021/09/17 00:21:24;;;;;;;48.88;20.98;;;;;;;22.02;45.50;95043.75;4984468;28;20031;-79
2021/09/17 00:23:50;;;;;;;62.80;25.38;;;;;;;21.96;46.14;95047.56;4984819;28;20038;-79
2021/09/17 00:26:15;;;;;;;50.55;21.92;;;;;;;21.93;46.47;95047.41;4987700;28;20074;-79
2021/09/17 00:28:41;;;;;;;45.65;18.10;;;;;;;21.87;46.89;95044.09;4985827;28;20035;-79
2021/09/17 00:31:07;;;;;;;41.83;18.58;;;;;;;21.81;46.98;95035.47;4986962;28;20058;-79
2021/09/17 00:33:32;;;;;;;65.40;30.33;;;;;;;21.77;47.32;95031.84;4992879;28;20118;-79
2021/09/17 00:35:57;;;;;;;64.78;30.17;;;;;;;21.73;47.26;95033.50;5018668;23;20042;-79
2021/09/17 00:38:23;;;;;;;65.38;25.05;;;;;;;21.70;47.30;95034.09;4989059;28;20034;-79
2021/09/17 00:40:48;;;;;;;71.30;34.05;;;;;;;21.67;47.42;95033.91;4986490;28;20405;-80
2021/09/17 00:43:14;;;;;;;65.68;30.60;;;;;;;21.62;47.26;95031.34;4987287;28;20034;-80
2021/09/17 00:45:39;;;;;;;72.78;34.78;;;;;;;21.54;47.54;95033.63;4990533;28;20034;-80
2021/09/17 00:48:04;;;;;;;76.35;38.78;;;;;;;21.49;48.03;95033.75;5013265;28;20042;-80
2021/09/17 00:50:30;;;;;;;69.25;32.70;;;;;;;21.42;48.11;95037.84;4989367;28;20038;-80
2021/09/17 00:52:56;;;;;;;53.17;27.88;;;;;;;21.36;47.88;95023.94;4988579;28;20034;-80
2021/09/17 00:55:24;;;;;;;62.50;24.75;;;;;;;21.30;47.93;95027.75;4990198;28;20446;-80
2021/09/17 00:57:50;;;;;;;61.25;26.83;;;;;;;21.26;48.06;95030.19;4988154;28;20030;-80
2021/09/17 01:00:15;;;;;;;50.90;23.58;;;;;;;21.20;48.07;95023.41;4989686;28;20041;-80
2021/09/17 01:02:41;;;;;;;40.33;20.88;;;;;;;21.16;47.88;95027.72;4990260;28;20045;-79
2021/09/17 01:05:07;;;;;;;55.45;25.67;;;;;;;21.13;48.32;95024.84;5015292;28;20477;-80
2021/09/17 01:07:33;;;;;;;49.53;25.23;;;;;;;21.10;48.53;95022.81;4993736;28;20038;-80
2021/09/17 01:12:27;;;;;;;62.15;29.27;;;;;;;21.05;48.91;95005.19;5042753;23;20078;-80
2021/09/17 01:14:53;;;;;;;52.33;23.15;;;;;;;21.04;48.79;95011.53;4990964;28;20026;-80
2021/09/17 01:17:19;;;;;;;37.88;19.40;;;;;;;21.03;48.32;95006.56;4959151;28;20058;-81
2021/09/17 01:19:47;;;;;;;31.02;15.77;;;;;;;20.97;48.34;95006.63;4996433;28;20077;-81
2021/09/17 01:22:13;;;;;;;25.95;14.98;;;;;;;20.93;48.39;94995.06;5022684;23;20053;-80
2021/09/17 01:24:38;;;;;;;40.20;18.33;;;;;;;20.87;48.48;94988.31;4993585;28;20035;-79
2021/09/17 01:27:04;;;;;;;32.33;17.77;;;;;;;20.83;48.69;94991.84;4998628;28;20053;-79
2021/09/17 01:29:30;;;;;;;29.15;14.63;;;;;;;20.82;48.45;94993.69;5000694;28;20110;-79
2021/09/17 01:31:55;;;;;;;20.58;12.98;;;;;;;20.79;48.72;94999.56;4983645;28;20037;-78
2021/09/17 01:34:21;;;;;;;26.30;15.75;;;;;;;20.76;48.75;95000.13;4982712;28;20085;-79
2021/09/17 01:36:47;;;;;;;32.42;17.35;;;;;;;20.73;48.81;94999.94;4988122;28;20493;-79
2021/09/17 01:39:13;;;;;;;36.08;15.38;;;;;;;20.71;48.66;94992.31;4983051;28;20034;-79
2021/09/17 01:41:39;;;;;;;29.75;13.85;;;;;;;20.70;48.91;95000.53;4965926;28;20034;-79
2021/09/17 01:44:04;;;;;;;37.70;16.15;;;;;;;20.67;49.19;94999.25;4998492;28;20696;-79
2021/09/17 01:46:29;;;;;;;34.13;15.77;;;;;;;20.66;49.44;94995.84;4998945;28;20038;-79
2021/09/17 01:48:55;;;;;;;24.58;12.20;;;;;;;20.67;49.57;94986.03;4999110;28;20035;-79
2021/09/17 01:51:20;;;;;;;26.33;13.13;;;;;;;20.66;49.41;94979.16;5008430;28;20038;-77
2021/09/17 01:53:46;;;;;;;30.63;13.82;;;;;;;20.64;49.21;94989.25;5008342;28;20026;-79
2021/09/17 01:56:12;;;;;;;21.52;12.85;;;;;;;20.61;49.08;94979.25;5005086;28;20035;-78
2021/09/17 01:58:37;;;;;;;28.77;14.27;;;;;;;20.59;49.33;94974.28;5009009;28;20037;-79
2021/09/17 02:01:03;;;;;;;28.70;13.55;;;;;;;20.57;49.71;94980.91;5000407;28;20080;-79
2021/09/17 02:03:28;;;;;;;22.20;11.02;;;;;;;20.55;48.44;94975.16;4999479;28;20030;-79
2021/09/17 02:05:54;;;;;;;31.52;13.63;;;;;;;20.55;49.36;94983.06;5000348;28;20057;-79
2021/09/17 02:08:19;;;;;;;45.38;17.23;;;;;;;20.53;49.84;94985.22;5001191;28;20057;-79
2021/09/17 02:10:51;;;;;;;45.65;23.75;;;;;;;20.52;50.29;94984.44;5141822;23;20035;-80
2021/09/17 02:13:20;;;;;;;46.78;19.52;;;;;;;20.51;50.23;94974.94;4992815;28;20038;-78
2021/09/17 02:15:49;;;;;;;40.45;18.15;;;;;;;20.50;50.23;94972.56;4983766;28;20081;-81
2021/09/17 02:18:15;;;;;;;40.50;17.05;;;;;;;20.48;50.26;94967.56;4969968;28;20102;-78
2021/09/17 02:20:40;;;;;;;47.75;19.08;;;;;;;20.50;50.19;94969.94;5160218;23;20243;-81
2021/09/17 02:23:06;;;;;;;45.60;15.93;;;;;;;20.51;50.03;94967.03;4991956;28;20429;-78
2021/09/17 02:25:31;;;;;;;41.72;16.85;;;;;;;20.52;50.10;94967.81;5002326;23;20104;-78
2021/09/17 02:27:56;;;;;;;38.15;17.38;;;;;;;20.53;50.24;94964.09;4985044;28;20038;-80
2021/09/17 02:30:22;;;;;;;50.47;17.95;;;;;;;20.48;50.51;94956.22;4986759;28;20038;-78
2021/09/17 02:32:47;;;;;;;55.42;17.20;;;;;;;20.51;50.36;94960.97;4986765;28;20026;-78
2021/09/17 02:35:13;;;;;;;38.22;15.18;;;;;;;20.52;50.29;94967.81;4986352;28;20035;-79
2021/09/17 02:37:39;;;;;;;39.63;15.73;;;;;;;20.53;50.35;94964.09;4993966;28;20023;-79
2021/09/17 02:42:38;;;;;;;34.33;14.45;;;;;;;20.52;50.44;94965.94;5028677;28;20045;-78
2021/09/17 02:47:40;;;;;;;27.35;14.27;;;;;;;20.53;50.44;94961.44;4969724;28;20039;-78
2021/09/17 02:50:07;;;;;;;34.83;13.95;;;;;;;20.54;50.46;94957.72;4965144;28;20035;-78
2021/09/17 02:52:38;;;;;;;33.20;13.85;;;;;;;20.54;50.54;94950.59;4963649;28;20035;-77
2021/09/17 02:55:04;;;;;;;29.17;11.75;;;;;;;20.55;50.33;94951.38;4964054;28;20510;-78
2021/09/17 02:57:30;;;;;;;25.30;12.68;;;;;;;20.55;50.46;94957.44;4966010;28;20050;-79
2021/09/17 02:59:55;;;;;;;32.80;13.00;;;;;;;20.54;50.61;94961.16;4969173;28;20038;-79
2021/09/17 03:02:21;;;;;;;30.92;13.02;;;;;;;20.52;50.52;94954.59;4966281;28;20031;-79
2021/09/17 03:04:46;;;;;;;39.40;15.43;;;;;;;20.54;51.01;94952.44;4966134;28;20042;-78
2021/09/17 03:07:11;;;;;;;32.70;11.85;;;;;;;20.51;50.94;94953.03;4965702;28;20027;-79
2021/09/17 03:09:37;;;;;;;27.77;11.88;;;;;;;20.50;50.68;94946.16;4952773;28;20485;-81
2021/09/17 03:12:03;;;;;;;35.72;12.98;;;;;;;20.48;50.95;94953.59;4952298;28;20093;-85
2021/09/17 03:14:28;;;;;;;32.97;12.63;;;;;;;20.49;51.67;94953.28;4970676;28;20049;-82
2021/09/17 03:16:54;;;;;;;27.23;13.57;;;;;;;20.51;51.50;94953.03;4965997;28;20035;-85
2021/09/17 03:19:19;;;;;;;37.97;12.75;;;;;;;20.51;51.32;94945.09;4969529;28;20031;-79
2021/09/17 03:21:44;;;;;;;28.98;13.07;;;;;;;20.52;51.42;94951.94;4968158;28;20031;-79
2021/09/17 03:24:10;;;;;;;25.17;12.70;;;;;;;20.49;51.65;94953.28;4967708;28;20027;-79
2021/09/17 03:26:36;;;;;;;25.63;12.02;;;;;;;20.51;51.44;94961.75;4948974;28;20035;-79
2021/09/17 03:29:01;;;;;;;23.52;10.50;;;;;;;20.52;49.90;94954.59;4959191;28;20516;-80
2021/09/17 03:31:26;;;;;;;25.05;9.27;;;;;;;20.54;49.30;94955.09;4989916;23;20046;-85
2021/09/17 03:33:52;;;;;;;21.58;9.82;;;;;;;20.53;49.73;94954.31;4997496;28;20041;-80
2021/09/17 03:36:17;;;;;;;16.00;9.50;;;;;;;20.54;49.62;94960.38;4987837;28;20038;-80
2021/09/17 03:38:55;;;;;;;27.42;11.02;;;;;;;20.53;50.20;94953.53;4977829;28;20035;-80
2021/09/17 03:41:21;;;;;;;30.17;11.18;;;;;;;20.52;50.02;94957.25;4976675;28;20038;-85
2021/09/17 03:43:46;;;;;;;27.98;10.93;;;;;;;20.53;50.13;94953.53;4975160;28;20034;-80
2021/09/17 03:46:12;;;;;;;27.02;11.50;;;;;;;20.54;50.29;94950.59;4981960;28;20034;-81
2021/09/17 03:51:07;;;;;;;15.90;9.05;;;;;;;20.57;48.88;94938.66;5040823;23;20054;-80
2021/09/17 03:53:35;;;;;;;15.90;10.13;;;;;;;20.57;50.29;94943.94;4990964;28;20023;-79
2021/09/17 03:56:00;;;;;;;18.17;9.93;;;;;;;20.60;50.41;94943.34;4987954;28;20030;-79
2021/09/17 03:58:26;;;;;;;24.10;10.05;;;;;;;20.59;50.45;94939.13;4986632;28;20031;-79
2021/09/17 04:00:51;;;;;;;23.15;12.10;;;;;;;20.60;51.32;94944.13;4986754;28;20065;-79
2021/09/17 04:03:17;;;;;;;21.80;10.63;;;;;;;20.57;51.43;94941.28;5012054;28;20035;-80
2021/09/17 04:05:43;;;;;;;29.90;11.50;;;;;;;20.56;50.84;94931.81;4970427;28;20046;-80
2021/09/17 04:08:08;;;;;;;28.92;10.60;;;;;;;20.58;51.31;94932.28;4994264;28;20123;-79
2021/09/17 04:10:34;;;;;;;33.28;10.55;;;;;;;20.56;50.06;94931.81;4987593;28;20031;-85
2021/09/17 04:13:00;;;;;;;37.53;12.65;;;;;;;20.60;51.01;94940.69;4986976;28;20097;-80
2021/09/17 04:15:26;;;;;;;69.75;22.55;;;;;;;20.60;51.74;94948.63;4991135;28;20034;-80
2021/09/17 04:17:51;;;;;;;60.38;16.50;;;;;;;20.59;51.73;94941.78;4990981;28;20031;-78
2021/09/17 04:20:17;;;;;;;62.97;14.95;;;;;;;20.57;52.04;94960.56;4974345;28;20038;-79
2021/09/17 04:22:42;;;;;;;42.72;15.52;;;;;;;20.55;52.13;94959.28;4987976;28;20038;-79
2021/09/17 04:25:08;;;;;;;63.72;19.08;;;;;;;20.51;52.26;94960.97;4988338;28;20039;-80
2021/09/17 04:27:34;;;;;;;55.90;16.88;;;;;;;20.49;52.67;94968.38;5070390;23;20030;-80
2021/09/17 04:29:59;;;;;;;49.03;18.67;;;;;;;20.50;52.56;94983.94;4997468;28;20039;-83
2021/09/17 04:32:25;;;;;;;72.78;24.17;;;;;;;20.51;53.05;94974.16;4986599;28;20042;-81
2021/09/17 04:34:50;;;;;;;41.50;18.42;;;;;;;20.49;52.36;94978.94;4982384;28;20568;-77
2021/09/17 04:37:17;;;;;;;53.45;18.95;;;;;;;20.46;52.82;94976.88;4981375;28;20053;-79
2021/09/17 04:39:42;;;;;;;49.55;17.90;;;;;;;20.46;52.64;94979.50;4989420;28;20026;-79
2021/09/17 04:42:08;;;;;;;52.80;19.77;;;;;;;20.46;52.94;94963.66;4971243;28;20018;-79
2021/09/17 04:44:33;;;;;;;35.50;15.20;;;;;;;20.46;51.39;94963.66;4989162;28;20030;-79
2021/09/17 04:46:59;;;;;;;41.22;15.07;;;;;;;20.51;51.46;94961.75;4986679;28;20030;-79
2021/09/17 04:49:24;;;;;;;38.80;15.85;;;;;;;20.55;51.62;94961.94;4988386;28;20034;-79
2021/09/17 04:51:50;;;;;;;72.10;17.77;;;;;;;20.56;51.81;94963.50;4971844;28;20062;-79
2021/09/17 04:54:17;;;;;;;99.80;19.92;;;;;;;20.57;52.26;94954.50;4989004;28;20042;-79
2021/09/17 04:56:42;;;;;;;66.75;16.30;;;;;;;20.59;51.53;94950.50;4985806;28;20490;-79
2021/09/17 04:59:08;;;;;;;69.93;19.52;;;;;;;20.63;50.96;94958.59;5012031;28;20088;-79
2021/09/17 05:01:33;;;;;;;88.30;20.98;;;;;;;20.67;51.59;94970.19;4986651;28;20039;-79
2021/09/17 05:03:59;;;;;;;92.60;27.20;;;;;;;20.74;52.12;94969.78;4987935;28;20086;-79
2021/09/17 05:06:25;;;;;;;112.55;30.33;;;;;;;20.78;52.06;94966.28;4973331;28;20042;-79
2021/09/17 05:08:51;;;;;;;136.68;27.77;;;;;;;20.86;52.14;94957.69;4970649;28;20041;-79
2021/09/17 05:11:16;;;;;;;118.72;24.95;;;;;;;20.93;52.04;94958.06;4988732;28;20067;-79
2021/09/17 05:13:42;;;;;;;62.33;15.27;;;;;;;21.02;49.61;94965.34;4988629;28;20042;-78
2021/09/17 05:16:10;;;;;;;85.57;22.60;;;;;;;21.09;49.88;94963.06;4988299;28;20035;-78
2021/09/17 05:18:36;;;;;;;76.00;28.38;;;;;;;21.27;50.88;94951.63;4985429;28;20039;-78
2021/09/17 05:21:01;;;;;;;72.88;20.55;;;;;;;21.67;49.50;94950.00;4986368;28;20067;-78
2021/09/17 05:23:27;;;;;;;80.85;22.75;;;;;;;21.74;49.57;94934.50;4956868;28;20039;-78
2021/09/17 05:25:52;;;;;;;67.75;17.60;;;;;;;21.74;48.51;94931.84;4967618;28;20042;-78
2021/09/17 05:28:18;;;;;;;39.20;14.55;;;;;;;21.75;48.15;94929.97;4986237;28;20031;-78
2021/09/17 05:30:43;;;;;;;40.72;14.07;;;;;;;21.75;48.41;94935.28;4984519;28;20127;-78
2021/09/17 05:33:08;;;;;;;55.15;13.50;;;;;;;21.76;47.65;94931.53;4986857;28;20042;-78
2021/09/17 05:35:34;;;;;;;63.72;15.95;;;;;;;21.77;48.14;94941.06;4981809;28;20569;-78
2021/09/17 05:37:59;;;;;;;97.13;21.83;;;;;;;21.77;48.94;94938.41;4983874;28;20237;-78
2021/09/17 05:40:28;;;;;;;78.57;19.58;;;;;;;21.78;49.35;94940.75;4986064;28;20517;-79
2021/09/17 05:42:53;;;;;;;38.65;13.93;;;;;;;21.82;47.94;94947.03;4967701;28;20169;-78
2021/09/17 05:45:19;;;;;;;49.22;13.70;;;;;;;21.92;47.02;94951.28;4982157;28;20074;-79
2021/09/17 05:47:44;;;;;;;81.50;19.10;;;;;;;22.03;47.89;94942.03;4987598;28;20034;-78
2021/09/17 05:50:10;;;;;;;66.95;18.55;;;;;;;22.14;48.37;94937.34;4957369;28;20047;-78
2021/09/17 05:52:36;;;;;;;84.75;23.95;;;;;;;22.29;47.64;94944.09;4989807;28;20106;-78
2021/09/17 05:55:03;;;;;;;76.68;16.08;;;;;;;22.62;46.53;94942.00;4990970;28;20035;-79
2021/09/17 05:57:29;;;;;;;75.40;19.83;;;;;;;23.05;47.14;94942.19;4993628;28;20065;-78
2021/09/17 05:59:54;;;;;;;102.85;20.23;;;;;;;23.54;46.88;94945.59;4993595;28;20038;-78
2021/09/17 06:02:20;;;;;;;90.88;18.67;;;;;;;24.02;45.63;94939.41;4987853;28;20098;-78
2021/09/17 06:04:45;;;;;;;79.78;18.13;;;;;;;24.44;44.30;94940.50;4989186;28;20041;-78
2021/09/17 06:07:11;;;;;;;66.38;16.15;;;;;;;24.77;42.80;94938.84;4991290;28;20100;-79
2021/09/17 06:09:37;;;;;;;56.22;17.65;;;;;;;24.99;42.51;94940.47;4974379;28;20063;-78
2021/09/17 06:12:03;;;;;;;72.22;18.55;;;;;;;25.31;41.51;94948.97;4974037;28;20038;-78
2021/09/17 06:14:28;;;;;;;90.00;17.67;;;;;;;25.76;41.31;94940.41;4993108;28;20030;-80
2021/09/17 06:16:54;;;;;;;54.25;14.25;;;;;;;26.09;38.77;94927.16;4973059;28;20042;-78
2021/09/17 06:19:19;;;;;;;57.60;13.30;;;;;;;26.41;38.05;94937.06;4992955;28;20048;-79
2021/09/17 06:21:45;;;;;;;44.22;13.30;;;;;;;26.80;36.30;94937.59;4991952;28;20058;-79
2021/09/17 06:24:10;;;;;;;34.88;13.57;;;;;;;27.10;35.20;94932.88;4991034;28;20072;-79
2021/09/17 06:26:42;;;;;;;43.13;13.23;;;;;;;27.34;34.92;94924.88;4991695;28;20034;-79
2021/09/17 06:29:08;;;;;;;34.33;12.98;;;;;;;27.62;33.89;94916.91;4996325;28;20129;-79
2021/09/17 06:31:34;;;;;;;31.60;12.88;;;;;;;27.83;33.06;94913.34;4990225;28;20132;-79
2021/09/17 06:33:59;;;;;;;28.05;12.65;;;;;;;28.06;32.97;94920.50;4993279;28;20118;-79
2021/09/17 06:36:25;;;;;;;34.42;12.65;;;;;;;28.30;32.06;94925.00;4989207;28;20042;-79
2021/09/17 06:38:50;;;;;;;35.80;13.00;;;;;;;28.54;32.62;94934.81;5013951;23;20046;-79
2021/09/17 06:41:16;;;;;;;42.20;13.90;;;;;;;28.74;32.06;94933.00;4997570;28;20043;-79
2021/09/17 06:43:41;;;;;;;37.85;14.07;;;;;;;28.62;32.54;94925.81;4991961;28;20145;-79
2021/09/17 06:46:07;;;;;;;33.38;13.45;;;;;;;28.78;32.31;94925.06;4982570;28;20066;-78
2021/09/17 06:48:33;;;;;;;46.45;13.43;;;;;;;28.87;31.96;94928.41;4967724;28;20026;-78
2021/09/17 06:50:58;;;;;;;41.38;14.38;;;;;;;29.16;31.42;94924.50;5000052;28;20034;-78
2021/09/17 06:53:27;;;;;;;40.63;13.32;;;;;;;29.35;30.31;94924.56;4991234;28;20057;-79
2021/09/17 06:55:52;;;;;;;33.72;12.35;;;;;;;29.56;30.57;94926.97;4986730;28;20118;-81
2021/09/17 06:58:18;;;;;;;29.77;12.40;;;;;;;29.72;30.16;94932.28;4982554;28;20450;-81
2021/09/17 07:03:32;;;;;;;28.17;10.38;;;;;;;29.70;29.25;94913.88;5129577;23;20039;-81
2021/09/17 07:05:58;;;;;;;20.08;7.93;;;;;;;29.79;28.73;94901.06;4984851;28;20034;-80
2021/09/17 07:08:23;;;;;;;26.48;8.25;;;;;;;29.93;28.11;94910.50;4973221;28;20045;-80
2021/09/17 07:10:49;;;;;;;23.05;9.02;;;;;;;29.73;28.25;94907.03;4970856;28;20050;-81
2021/09/17 07:13:14;;;;;;;28.42;10.38;;;;;;;29.62;28.50;94912.19;4952795;28;20034;-81
2021/09/17 07:18:07;;;;;;;27.63;8.80;;;;;;;29.67;28.88;94898.50;5120676;23;20101;-82
2021/09/17 07:24:52;;;;;;;22.15;9.43;;;;;;;29.55;28.00;94890.56;4983449;28;20099;-80
2021/09/17 07:27:17;;;;;;;25.02;9.15;;;;;;;29.58;28.51;94889.88;4981758;28;20403;-80
2021/09/17 07:29:42;;;;;;;24.92;8.73;;;;;;;29.51;29.07;94895.88;4981063;28;20045;-80
2021/09/17 07:32:08;;;;;;;16.73;7.95;;;;;;;29.63;29.53;94884.25;4983618;28;20518;-80
2021/09/17 07:34:34;;;;;;;22.58;9.02;;;;;;;29.71;29.23;94877.91;4984519;28;20062;-80
2021/09/17 07:37:00;;;;;;;15.80;7.20;;;;;;;29.84;29.50;94882.00;4969126;28;20097;-80
2021/09/17 07:39:25;;;;;;;37.13;9.77;;;;;;;29.80;28.82;94873.13;4982373;28;20093;-81
2021/09/17 07:41:51;;;;;;;35.03;10.68;;;;;;;29.69;29.27;94874.81;4985007;28;20027;-81
2021/09/17 07:44:16;;;;;;;32.00;9.40;;;;;;;29.68;29.84;94873.25;4964781;28;20046;-80
2021/09/17 07:46:42;;;;;;;23.63;8.57;;;;;;;29.64;28.53;94874.31;4981125;28;20430;-80
2021/09/17 07:49:07;;;;;;;33.15;8.55;;;;;;;29.59;28.81;94867.31;4980839;28;20486;-80
2021/09/17 07:51:33;;;;;;;27.83;7.65;;;;;;;29.56;28.66;94873.38;4980946;28;20034;-81
2021/09/17 07:53:58;;;;;;;22.55;6.85;;;;;;;29.58;28.70;94869.22;4948892;28;20569;-80
2021/09/17 07:56:24;;;;;;;22.88;7.80;;;;;;;29.62;28.43;94863.94;4964943;28;20352;-80
2021/09/17 07:58:49;;;;;;;20.02;6.65;;;;;;;29.70;28.15;94862.19;4979852;28;20046;-80
2021/09/17 08:01:15;;;;;;;17.10;6.47;;;;;;;29.79;29.86;94860.06;4980545;28;20064;-80
2021/09/17 08:03:40;;;;;;;17.15;6.85;;;;;;;29.77;27.33;94854.25;4982075;28;20039;-81
2021/09/17 08:06:07;;;;;;;13.48;5.80;;;;;;;29.82;29.33;94852.09;4963523;28;20081;-80
2021/09/17 08:08:32;;;;;;;20.63;6.22;;;;;;;29.78;27.17;94839.75;4981903;28;20046;-80
2021/09/17 08:10:58;;;;;;;19.48;6.20;;;;;;;29.54;27.25;94828.16;4983645;28;20035;-80
2021/09/17 08:13:23;;;;;;;10.32;6.20;;;;;;;29.53;27.28;94831.22;4979118;28;20038;-80
2021/09/17 08:15:49;;;;;;;15.85;6.05;;;;;;;29.59;26.84;94825.22;4978401;28;20027;-79
2021/09/17 08:18:14;;;;;;;15.20;6.47;;;;;;;29.62;27.13;94826.44;4981031;28;20045;-80
2021/09/17 08:20:47;;;;;;;14.98;6.60;;;;;;;29.65;26.55;94831.06;4981707;28;20037;-79
2021/09/17 08:23:13;;;;;;;13.82;7.07;;;;;;;29.39;26.91;94822.84;4979848;28;20038;-80
2021/09/17 08:25:38;;;;;;;25.05;6.15;;;;;;;29.45;27.30;94822.22;5001028;23;20563;-79
2021/09/17 08:28:04;;;;;;;17.48;6.70;;;;;;;29.41;26.90;94825.94;5011189;28;20044;-80
2021/09/17 08:30:29;;;;;;;23.77;6.40;;;;;;;29.47;27.17;94813.88;5008714;28;20116;-80
2021/09/17 08:32:55;;;;;;;16.33;7.05;;;;;;;29.40;27.69;94819.03;5000157;28;20026;-79
2021/09/17 08:35:20;;;;;;;18.67;5.93;;;;;;;29.45;27.51;94816.06;5000101;28;20038;-80
2021/09/17 08:37:46;;;;;;;30.65;6.40;;;;;;;29.33;27.21;94818.91;5001742;28;20044;-79
2021/09/17 08:40:11;;;;;;;18.77;6.30;;;;;;;29.36;27.46;94818.19;5002839;28;20114;-80
2021/09/17 08:42:37;;;;;;;22.17;6.88;;;;;;;29.19;27.21;94814.78;5002972;28;20039;-79
2021/09/17 08:45:04;;;;;;;12.95;6.57;;;;;;;28.68;27.91;94813.97;5003241;28;20052;-79
2021/09/17 08:47:30;;;;;;;20.10;6.32;;;;;;;28.79;28.25;94812.31;5004340;28;20033;-80
2021/09/17 08:49:55;;;;;;;23.85;6.53;;;;;;;28.98;29.45;94815.09;5007369;28;20030;-81
2021/09/17 08:52:21;;;;;;;18.05;6.57;;;;;;;29.11;29.53;94812.28;5001129;28;20057;-81
2021/09/17 08:54:47;;;;;;;14.18;6.25;;;;;;;29.20;29.32;94808.31;5002346;28;20034;-80
2021/09/17 08:57:12;;;;;;;15.90;6.82;;;;;;;29.27;29.49;94805.75;4982527;28;20096;-80
2021/09/17 08:59:38;;;;;;;24.58;6.38;;;;;;;29.27;29.22;94799.63;4997601;28;20440;-80
2021/09/17 09:02:23;;;;;;;17.65;6.68;;;;;;;29.33;28.80;94803.59;4981426;28;20054;-80
2021/09/17 09:04:59;;;;;;;15.18;6.43;;;;;;;29.35;29.25;94800.56;4997442;28;20030;-80
2021/09/17 09:07:42;;;;;;;12.55;5.53;;;;;;;29.39;29.42;94796.81;4981395;28;20030;-80
2021/09/17 09:10:12;;;;;;;19.35;6.32;;;;;;;29.41;29.04;94802.59;5000600;28;20516;-80
2021/09/17 09:12:42;;;;;;;19.70;6.35;;;;;;;29.46;28.92;94785.53;4985044;28;20124;-80
2021/09/17 09:15:12;;;;;;;16.55;6.07;;;;;;;29.51;29.49;94788.69;4982991;28;20041;-80
2021/09/17 09:17:37;;;;;;;13.50;6.18;;;;;;;29.57;29.16;94786.50;4997892;28;20061;-80
2021/09/17 09:20:19;;;;;;;12.32;6.15;;;;;;;29.58;29.28;94771.97;4996766;28;20569;-81
2021/09/17 09:23:06;;;;;;;29.65;6.95;;;;;;;29.58;28.57;94769.28;4983454;28;20034;-80
2021/09/17 09:25:32;;;;;;;25.08;6.50;;;;;;;29.58;28.41;94764.69;5001169;28;20034;-79
2021/09/17 09:28:19;;;;;;;22.80;5.43;;;;;;;29.60;29.43;94769.69;4985481;28;20041;-79
2021/09/17 09:30:45;;;;;;;17.45;5.25;;;;;;;29.64;29.00;94764.44;4986756;28;20457;-80
2021/09/17 09:33:30;;;;;;;23.30;6.47;;;;;;;29.61;28.87;94760.53;4988951;28;20018;-79
2021/09/17 09:35:59;;;;;;;22.63;5.97;;;;;;;29.64;29.19;94754.50;5004288;28;20045;-79
2021/09/17 09:38:37;;;;;;;26.38;6.30;;;;;;;29.69;29.12;94746.16;5004287;28;20033;-79
2021/09/17 09:41:04;;;;;;;16.95;5.68;;;;;;;29.63;29.56;94752.94;5003619;28;20037;-79
2021/09/17 09:43:40;;;;;;;14.68;6.38;;;;;;;29.58;28.59;94758.56;5004026;28;20053;-80
2021/09/17 09:46:28;;;;;;;20.90;6.97;;;;;;;29.50;29.35;94751.53;4969269;28;20030;-80
2021/09/17 09:48:59;;;;;;;17.95;5.50;;;;;;;29.51;30.05;94734.34;4988943;28;20041;-80
2021/09/17 09:51:25;;;;;;;23.60;5.93;;;;;;;29.49;30.04;94733.91;5005029;28;20041;-80
2021/09/17 09:53:51;;;;;;;18.73;6.57;;;;;;;29.55;29.67;94735.94;5006915;28;20501;-80
2021/09/17 09:58:48;;;;;;;23.60;6.32;;;;;;;29.69;29.20;94729.31;5017519;23;20057;-81
2021/09/17 10:01:14;;;;;;;27.00;6.13;;;;;;;29.70;29.27;94720.91;4983858;28;20066;-81
2021/09/17 10:03:39;;;;;;;40.67;7.00;;;;;;;29.71;28.75;94710.94;4957095;28;20031;-80
2021/09/17 10:06:05;;;;;;;31.60;6.82;;;;;;;29.74;28.86;94716.38;4972644;28;20050;-81
2021/09/17 10:08:30;;;;;;;43.75;7.03;;;;;;;29.76;28.12;94719.47;4972267;28;20031;-80
2021/09/17 10:10:58;;;;;;;37.22;6.70;;;;;;;29.73;28.01;94709.47;5047638;23;20457;-80
2021/09/17 10:13:23;;;;;;;26.08;6.05;;;;;;;29.66;28.73;94724.66;5009348;28;20497;-81
2021/09/17 10:15:49;;;;;;;22.88;6.05;;;;;;;29.64;28.74;94721.56;5008010;28;20092;-80
2021/09/17 10:18:17;;;;;;;19.23;5.95;;;;;;;29.62;27.97;94719.22;4969867;28;20040;-80
2021/09/17 10:20:43;;;;;;;37.58;6.78;;;;;;;29.57;28.62;94719.50;4984352;28;20026;-81
2021/09/17 10:23:31;;;;;;;35.67;7.07;;;;;;;29.52;29.07;94714.44;4999879;28;20029;-80
2021/09/17 10:25:57;;;;;;;28.67;6.53;;;;;;;29.49;28.91;94718.59;5003642;28;20053;-81
2021/09/17 10:28:22;;;;;;;20.15;6.53;;;;;;;29.51;28.47;94712.91;5002736;28;20042;-81
2021/09/17 10:30:48;;;;;;;25.17;6.00;;;;;;;29.51;28.74;94707.53;5003021;28;20077;-81
2021/09/17 10:33:23;;;;;;;38.08;6.07;;;;;;;29.51;29.13;94702.94;5001292;28;20045;-81
2021/09/17 10:35:49;;;;;;;26.13;6.53;;;;;;;29.47;29.42;94699.44;4999906;28;20029;-81
2021/09/17 10:38:18;;;;;;;30.58;7.35;;;;;;;29.44;29.68;94691.28;5003622;28;20060;-81
2021/09/17 10:40:54;;;;;;;33.42;6.47;;;;;;;29.45;29.29;94692.81;5001764;28;20030;-81
2021/09/17 10:43:23;;;;;;;29.70;6.00;;;;;;;29.49;29.44;94693.72;5004295;28;20034;-81
2021/09/17 10:45:50;;;;;;;41.55;8.38;;;;;;;29.47;28.60;94682.59;4983026;28;20418;-81
2021/09/17 10:48:21;;;;;;;32.08;6.72;;;;;;;29.51;29.36;94673.47;4999312;28;20032;-81
2021/09/17 10:50:53;;;;;;;22.23;6.03;;;;;;;29.54;29.06;94675.44;5006476;28;20038;-80
2021/09/17 10:53:40;;;;;;;41.35;6.60;;;;;;;29.62;29.55;94676.34;5006500;28;20026;-81
2021/09/17 10:56:12;;;;;;;26.95;6.88;;;;;;;29.69;29.08;94657.72;5006088;28;20038;-81
2021/09/17 10:58:38;;;;;;;;;;;;;;;29.76;28.48;94657.81;5007172;28;20030;-80
2021/09/17 11:01:15;;;;;;;24.95;5.65;;;;;;;29.81;28.87;94652.19;4984942;28;19921;-81
2021/09/17 11:03:40;;;;;;;30.40;6.93;;;;;;;29.86;28.85;94651.88;4987133;28;20494;-81
2021/09/17 11:06:18;;;;;;;27.15;7.22;;;;;;;29.95;28.79;94650.88;5001440;28;20045;-81
2021/09/17 11:08:44;;;;;;;31.58;6.45;;;;;;;30.05;27.92;94644.91;5002093;28;20081;-81
2021/09/17 11:11:38;;;;;;;32.92;7.00;;;;;;;30.04;27.96;94643.34;5002014;28;20029;-81
2021/09/17 11:14:16;;;;;;;31.98;6.60;;;;;;;30.03;28.46;94641.78;5003623;28;20037;-81
2021/09/17 11:16:44;;;;;;;39.05;5.93;;;;;;;30.05;28.55;94636.88;5072409;23;20061;-81
2021/09/17 11:19:11;;;;;;;20.33;5.95;;;;;;;30.06;28.25;94633.06;5012014;28;20394;-81
2021/09/17 11:21:44;;;;;;;32.53;6.88;;;;;;;30.05;28.10;94636.88;5005087;28;20093;-81
2021/09/17 11:24:16;;;;;;;23.65;6.80;;;;;;;30.02;28.28;94635.66;5001443;28;20383;-81
2021/09/17 11:26:43;;;;;;;38.20;7.18;;;;;;;29.97;27.50;94622.56;4999659;28;20045;-81
2021/09/17 11:29:10;;;;;;;24.10;6.38;;;;;;;29.96;28.65;94620.25;4982397;28;20516;-81
2021/09/17 11:31:37;;;;;;;36.83;6.65;;;;;;;29.94;28.90;94617.13;5001704;28;20374;-81
2021/09/17 11:34:07;;;;;;;25.48;6.25;;;;;;;29.84;28.98;94623.88;5003569;28;20470;-81
2021/09/17 11:39:17;;;;;;;28.02;5.95;;;;;;;29.62;29.16;94622.75;5063855;23;20515;-80
2021/09/17 11:41:43;;;;;;;44.80;7.40;;;;;;;29.64;29.23;94617.81;4986487;28;20026;-80
2021/09/17 11:44:08;;;;;;;34.28;6.32;;;;;;;29.65;29.63;94607.88;4988267;28;20073;-81